Time;durP1;ratioP1;P1;durP2;ratioP2;P2;SDS_P1;SDS_P2;PMS_P1;PMS_P2;Temp;Humidity;BMP_temperature;BMP_pressure;BME280_temperature;BME280_humidity;BME280_pressure;Samples;Min_cycle;Max_cycle;Signal;HPM_P1;HPM_P2
2020/12/24 00:00:38;;;;;;;1999.90;999.90;;;;;;;-5.09;92.77;101752.58;1807627;78;21594;-69
2020/12/24 00:03:06;;;;;;;1999.90;999.90;;;;;;;-5.08;92.90;101751.56;1756076;78;71345;-81
2020/12/24 00:05:34;;;;;;;1999.90;999.90;;;;;;;-5.03;93.03;101755.92;1732061;81;21163;-81
2020/12/24 00:08:02;;;;;;;1999.90;999.90;;;;;;;-5.00;92.95;101756.08;1731806;81;21170;-81
2020/12/24 00:10:36;;;;;;;1999.90;999.90;;;;;;;-4.99;92.99;101755.05;1731908;82;21143;-81
2020/12/24 00:13:04;;;;;;;;;;;;;;;-4.93;93.06;101753.00;1735731;82;21253;-81
2020/12/24 00:15:32;;;;;;;1999.90;999.90;;;;;;;-4.88;92.95;101756.00;1734230;82;20313;-80
2020/12/24 00:18:01;;;;;;;1999.90;999.90;;;;;;;-4.89;92.85;101748.41;1729304;81;21143;-80
2020/12/24 00:20:29;;;;;;;1999.90;999.90;;;;;;;-4.88;92.79;101747.39;1734292;82;20992;-80
2020/12/24 00:22:57;;;;;;;1999.90;999.90;;;;;;;-4.88;92.72;101748.74;1733833;81;21099;-80
2020/12/24 00:25:24;;;;;;;1999.90;999.90;;;;;;;-4.89;92.75;101743.01;1734002;82;22258;-81
2020/12/24 00:27:52;;;;;;;1999.90;999.90;;;;;;;-4.88;92.73;101740.64;1733444;82;21167;-83
2020/12/24 00:30:20;;;;;;;1999.90;999.90;;;;;;;-4.87;92.78;101736.08;1733794;82;21182;-81
2020/12/24 00:32:48;;;;;;;1999.90;999.90;;;;;;;-4.89;92.72;101735.42;1733118;82;21175;-80
2020/12/24 00:35:16;;;;;;;1999.90;999.90;;;;;;;-4.94;92.79;101723.80;1734323;82;21112;-81
2020/12/24 00:37:44;;;;;;;1999.90;999.90;;;;;;;-4.94;92.92;101720.27;1733381;82;21362;-81
2020/12/24 00:40:12;;;;;;;1999.90;999.90;;;;;;;-4.90;93.04;101721.59;1734336;82;21130;-81
2020/12/24 00:42:39;;;;;;;1999.90;999.90;;;;;;;-4.87;93.04;101715.31;1733449;82;20988;-81
2020/12/24 00:45:07;;;;;;;1999.90;999.90;;;;;;;-4.84;92.92;101710.58;1734232;82;21167;-81
2020/12/24 00:47:35;;;;;;;1999.90;999.90;;;;;;;-4.88;92.89;101708.23;1733100;82;21613;-81
2020/12/24 00:50:03;;;;;;;1999.90;999.90;;;;;;;-4.89;92.93;101700.31;1733763;82;21634;-81
2020/12/24 00:52:31;;;;;;;1999.90;999.90;;;;;;;-4.85;93.01;101701.64;1733241;80;21064;-81
2020/12/24 00:55:00;;;;;;;1999.90;999.90;;;;;;;-4.85;92.93;101700.80;1705026;81;21714;-81
2020/12/24 00:57:27;;;;;;;1999.90;999.90;;;;;;;-4.91;92.85;101695.60;1696185;82;21517;-81
2020/12/24 00:59:55;;;;;;;1999.90;999.90;;;;;;;-4.95;92.97;101692.94;1677704;82;21524;-81
2020/12/24 01:02:23;;;;;;;1999.90;999.90;;;;;;;-4.99;93.10;101692.45;1701064;82;21396;-81
2020/12/24 01:04:51;;;;;;;1999.90;999.90;;;;;;;-5.01;93.22;101691.79;1707344;82;21107;-81
2020/12/24 01:07:19;;;;;;;1999.90;999.90;;;;;;;-5.00;93.30;101689.42;1692737;82;21340;-81
2020/12/24 01:09:46;;;;;;;1999.90;999.90;;;;;;;-5.00;93.35;101689.42;1711929;82;21405;-81
2020/12/24 01:12:14;;;;;;;1999.90;999.90;;;;;;;-5.00;93.40;101690.77;1692685;82;21170;-82
2020/12/24 01:14:44;;;;;;;1999.90;999.90;;;;;;;-4.98;93.40;101688.73;1717655;82;21408;-82
2020/12/24 01:17:12;;;;;;;1999.90;999.90;;;;;;;-4.95;93.48;101687.02;1694198;84;21162;-81
2020/12/24 01:19:40;;;;;;;1999.90;999.90;;;;;;;-4.93;93.48;101678.23;1710573;82;21195;-80
2020/12/24 01:22:07;;;;;;;1999.90;999.90;;;;;;;-4.90;93.40;101683.27;1688047;84;21198;-81
2020/12/24 01:24:36;;;;;;;1999.90;999.90;;;;;;;-4.89;93.39;101686.30;1713966;82;21127;-82
2020/12/24 01:27:03;;;;;;;1999.90;999.90;;;;;;;-4.84;93.47;101686.27;1692950;84;21202;-81
2020/12/24 01:29:31;;;;;;;1999.90;999.90;;;;;;;-4.79;93.43;101682.02;1708948;82;21183;-81
2020/12/24 01:31:59;;;;;;;1999.90;999.90;;;;;;;-4.76;93.38;101684.35;1692109;84;21158;-81
2020/12/24 01:34:27;;;;;;;1999.90;999.90;;;;;;;-4.73;93.28;101678.59;1707181;82;21130;-81
2020/12/24 01:36:57;;;;;;;1999.90;999.90;;;;;;;-4.71;93.20;101683.80;1701037;84;21187;-82
2020/12/24 01:39:25;;;;;;;1999.90;999.90;;;;;;;-4.72;93.14;101677.56;1700735;82;22312;-81
2020/12/24 01:41:52;;;;;;;1999.90;999.90;;;;;;;-4.70;93.10;101678.73;1690300;84;21048;-82
2020/12/24 01:44:20;;;;;;;1999.90;999.90;;;;;;;-4.69;93.05;101679.06;1702947;82;21561;-81
2020/12/24 01:46:49;;;;;;;1999.90;999.90;;;;;;;-4.69;93.09;101679.91;1688078;84;21214;-81
2020/12/24 01:49:18;;;;;;;1999.90;999.90;;;;;;;-4.67;93.18;101678.38;1693485;82;21163;-81
2020/12/24 01:51:56;;;;;;;1999.90;999.90;;;;;;;-4.63;93.17;101679.18;1703895;82;21398;-81
2020/12/24 01:54:25;;;;;;;1999.90;999.90;;;;;;;-4.62;93.01;101678.67;1703998;82;21158;-81
2020/12/24 01:56:53;;;;;;;1999.90;999.90;;;;;;;-4.61;93.00;101682.53;1697368;84;21170;-82
2020/12/24 01:59:23;;;;;;;1999.90;999.90;;;;;;;-4.60;92.96;101686.92;1709740;82;21178;-82
2020/12/24 02:01:51;;;;;;;1999.90;999.90;;;;;;;-4.59;93.02;101683.20;1698101;84;21616;-82
2020/12/24 02:04:19;;;;;;;1999.90;999.90;;;;;;;-4.55;93.07;101682.32;1699506;82;21210;-81
2020/12/24 02:06:49;;;;;;;1999.90;999.90;;;;;;;-4.56;92.90;101684.18;1702446;82;21234;-81
2020/12/24 02:09:16;;;;;;;1999.90;999.90;;;;;;;-4.56;92.87;101688.23;1701029;82;21179;-82
2020/12/24 02:11:44;;;;;;;1999.90;999.90;;;;;;;-4.55;92.92;101679.62;1697462;82;21194;-82
2020/12/24 02:14:12;;;;;;;1999.90;999.90;;;;;;;-4.52;93.00;101678.41;1676882;82;21155;-82
2020/12/24 02:16:40;;;;;;;1999.90;999.90;;;;;;;-4.48;93.02;101688.67;1693553;84;21208;-82
2020/12/24 02:19:07;;;;;;;1999.90;999.90;;;;;;;-4.47;92.94;101682.76;1742452;81;21153;-81
2020/12/24 02:21:35;;;;;;;1999.90;999.90;;;;;;;-4.48;92.88;101681.08;1735082;82;21040;-81
2020/12/24 02:24:03;;;;;;;1999.90;999.90;;;;;;;-4.47;92.93;101684.11;1739923;81;21090;-81
2020/12/24 02:26:31;;;;;;;1999.90;999.90;;;;;;;-4.48;92.88;101678.38;1735958;82;21115;-81
2020/12/24 02:28:58;;;;;;;1999.90;999.90;;;;;;;-4.50;92.87;101675.86;1738201;81;21380;-81
2020/12/24 02:31:26;;;;;;;1999.90;999.90;;;;;;;-4.51;92.92;101675.53;1726988;81;21147;-82
2020/12/24 02:33:54;;;;;;;1999.90;999.90;;;;;;;-4.51;93.04;101676.05;1729255;81;21028;-81
2020/12/24 02:36:22;;;;;;;1999.90;999.90;;;;;;;-4.54;93.11;101669.14;1745283;81;21218;-82
2020/12/24 02:38:49;;;;;;;1999.90;999.90;;;;;;;-4.57;93.24;101668.16;1732144;81;21218;-81
2020/12/24 02:41:17;;;;;;;1999.90;999.90;;;;;;;-4.60;93.41;101676.11;1741768;81;21387;-81
2020/12/24 02:43:47;;;;;;;1999.90;999.90;;;;;;;-4.58;93.63;101679.47;1733694;79;21190;-81
2020/12/24 02:46:14;;;;;;;1999.90;999.90;;;;;;;-4.55;93.66;101676.92;1741516;82;21539;-81
2020/12/24 02:48:43;;;;;;;1999.90;999.90;;;;;;;-4.51;93.71;101676.05;1742879;82;21032;-81
2020/12/24 02:51:11;;;;;;;1999.90;999.90;;;;;;;-4.47;93.70;101676.00;1743469;81;21067;-82
2020/12/24 02:53:39;;;;;;;1999.90;999.90;;;;;;;-4.42;93.73;101672.24;1736548;81;21383;-81
2020/12/24 02:56:07;;;;;;;1999.90;999.90;;;;;;;-4.38;93.66;101677.61;1717677;82;21113;-81
2020/12/24 02:58:35;;;;;;;1999.90;999.90;;;;;;;-4.38;93.55;101674.39;1739646;81;21542;-81
2020/12/24 03:01:02;;;;;;;1999.90;999.90;;;;;;;-4.41;93.50;101674.76;1737472;81;21100;-81
2020/12/24 03:03:30;;;;;;;1999.90;999.90;;;;;;;-4.43;93.56;101675.97;1735195;79;21558;-81
2020/12/24 03:05:58;;;;;;;1999.90;999.90;;;;;;;-4.44;93.68;101672.42;1751370;80;22257;-82
2020/12/24 03:08:27;;;;;;;1999.90;999.90;;;;;;;-4.44;93.83;101672.42;1751272;80;21665;-81
2020/12/24 03:10:55;;;;;;;1999.90;999.90;;;;;;;-4.39;93.98;101667.82;1728219;81;21102;-81
2020/12/24 03:13:22;;;;;;;1999.90;999.90;;;;;;;-4.34;94.02;101668.95;1750774;80;20982;-81
2020/12/24 03:15:51;;;;;;;1999.90;999.90;;;;;;;-4.30;93.97;101666.72;1759974;80;21141;-82
2020/12/24 03:18:18;;;;;;;1999.90;999.90;;;;;;;-4.27;93.86;101670.41;1755239;80;21226;-82
2020/12/24 03:20:46;;;;;;;1999.90;999.90;;;;;;;-4.24;93.79;101669.52;1757422;80;21161;-81
2020/12/24 03:23:14;;;;;;;1999.90;999.90;;;;;;;-4.23;93.70;101671.72;1749280;80;21146;-81
2020/12/24 03:25:41;;;;;;;1999.90;999.90;;;;;;;-4.23;93.71;101675.77;1757110;80;21170;-82
2020/12/24 03:28:09;;;;;;;1999.90;999.90;;;;;;;-4.22;93.70;101678.29;1753693;80;22106;-82
2020/12/24 03:30:37;;;;;;;1999.90;999.90;;;;;;;-4.19;93.72;101677.08;1763059;80;22077;-82
2020/12/24 03:33:05;;;;;;;1999.90;999.90;;;;;;;-4.15;93.76;101673.49;1752048;80;21174;-82
2020/12/24 03:35:33;;;;;;;1999.90;999.90;;;;;;;-4.10;93.75;101675.97;1754308;81;21145;-81
2020/12/24 03:38:01;;;;;;;1999.90;999.90;;;;;;;-4.06;93.67;101671.88;1748834;81;21177;-81
2020/12/24 03:40:29;;;;;;;1999.90;999.90;;;;;;;-4.09;93.46;101670.89;1756147;81;21146;-79
2020/12/24 03:42:56;;;;;;;1999.90;999.90;;;;;;;-4.11;93.45;101674.30;1752692;80;21720;-80
2020/12/24 03:45:24;;;;;;;1999.90;999.90;;;;;;;-4.10;93.47;101674.62;1765628;80;21229;-81
2020/12/24 03:47:52;;;;;;;1999.90;999.90;;;;;;;-4.09;93.46;101676.30;1756453;80;21312;-81
2020/12/24 03:50:21;;;;;;;1999.90;999.90;;;;;;;-4.05;93.52;101676.77;1762329;80;21174;-81
2020/12/24 03:52:49;;;;;;;1999.90;999.90;;;;;;;-4.04;93.45;101676.58;1749407;80;21614;-81
2020/12/24 03:55:17;;;;;;;1999.90;999.90;;;;;;;-4.01;93.49;101675.38;1764551;79;21382;-81
2020/12/24 03:57:45;;;;;;;1999.90;999.90;;;;;;;-3.97;93.45;101673.46;1750537;80;21546;-81
2020/12/24 04:00:12;;;;;;;1999.90;999.90;;;;;;;-4.00;93.30;101666.23;1761836;80;21141;-81
2020/12/24 04:02:40;;;;;;;1999.90;999.90;;;;;;;-4.02;93.28;101666.93;1749938;80;21138;-81
2020/12/24 04:05:08;;;;;;;1999.90;999.90;;;;;;;-4.09;93.35;101672.24;1754828;80;21145;-80
2020/12/24 04:07:36;;;;;;;1999.90;999.90;;;;;;;-4.10;93.52;101672.43;1732552;81;21447;-80
2020/12/24 04:10:04;;;;;;;1999.90;999.90;;;;;;;-4.14;93.70;101671.95;1733136;81;21010;-80
2020/12/24 04:12:31;;;;;;;1999.90;999.90;;;;;;;-4.15;93.87;101677.55;1723394;81;21167;-81
2020/12/24 04:14:59;;;;;;;1999.90;999.90;;;;;;;-4.15;94.05;101681.61;1739737;81;21161;-81
2020/12/24 04:17:27;;;;;;;1999.90;999.90;;;;;;;-4.14;94.21;101688.69;1734749;82;21158;-81
2020/12/24 04:19:54;;;;;;;1999.90;999.90;;;;;;;-4.11;94.34;101685.63;1734603;82;21827;-81
2020/12/24 04:22:22;;;;;;;1999.90;999.90;;;;;;;-4.08;94.39;101689.30;1729244;82;21125;-81
2020/12/24 04:24:51;;;;;;;1999.90;999.90;;;;;;;-4.06;94.44;101689.45;1744113;81;21128;-81
2020/12/24 04:27:18;;;;;;;1999.90;999.90;;;;;;;-4.05;94.53;101672.71;1726620;81;21151;-81
2020/12/24 04:29:47;;;;;;;1999.90;999.90;;;;;;;-4.07;94.67;101674.76;1746845;81;21151;-81
2020/12/24 04:32:15;;;;;;;1999.90;999.90;;;;;;;-4.06;94.85;101677.80;1738976;81;21570;-81
2020/12/24 04:34:43;;;;;;;1999.90;999.90;;;;;;;-4.08;95.07;101674.44;1753013;81;21098;-82
2020/12/24 04:37:11;;;;;;;1999.90;999.90;;;;;;;-4.08;95.29;101677.98;1739908;82;21044;-82
2020/12/24 04:39:39;;;;;;;1999.90;999.90;;;;;;;-4.06;95.41;101674.58;1743282;82;21032;-81
2020/12/24 04:42:07;;;;;;;1999.90;999.90;;;;;;;-4.05;95.57;101668.66;1745084;80;21126;-82
2020/12/24 04:44:35;;;;;;;1999.90;999.90;;;;;;;-4.04;95.69;101667.12;1742237;81;21211;-81
2020/12/24 04:47:02;;;;;;;1999.90;999.90;;;;;;;-4.03;95.83;101664.74;1682442;82;21114;-81
2020/12/24 04:49:31;;;;;;;1999.90;999.90;;;;;;;-4.02;95.95;101664.23;1741997;81;21162;-81
2020/12/24 04:52:01;;;;;;;1999.90;999.90;;;;;;;-4.02;96.06;101663.72;1736641;82;21166;-81
2020/12/24 04:54:29;;;;;;;1999.90;999.90;;;;;;;-4.00;96.15;101671.64;1737264;80;21608;-81
2020/12/24 04:56:56;;;;;;;1999.90;999.90;;;;;;;-3.99;96.29;101670.10;1687785;82;21788;-81
2020/12/24 04:59:24;;;;;;;1999.90;999.90;;;;;;;-3.96;96.39;101674.30;1670643;83;21182;-81
2020/12/24 05:01:52;;;;;;;1999.90;999.90;;;;;;;-3.95;96.43;101667.87;1735860;81;21582;-81
2020/12/24 05:04:19;;;;;;;1999.90;999.90;;;;;;;-3.95;96.51;101671.41;1730842;81;21159;-81
2020/12/24 05:06:47;;;;;;;1999.90;999.90;;;;;;;-3.95;96.58;101670.06;1753729;80;21145;-81
2020/12/24 05:09:15;;;;;;;1999.90;999.90;;;;;;;-3.95;96.71;101671.92;1751219;80;21373;-81
2020/12/24 05:11:44;;;;;;;1999.90;999.90;;;;;;;-3.94;96.86;101664.98;1709951;81;21162;-81
2020/12/24 05:14:18;;;;;;;1999.90;999.90;;;;;;;-3.91;96.92;101672.72;1754536;78;21134;-81
2020/12/24 05:17:06;;;;;;;1999.90;999.90;;;;;;;-3.89;96.99;101667.13;1759006;79;26288;-81
2020/12/24 05:19:47;;;;;;;1999.90;999.90;;;;;;;-3.89;97.06;101668.47;1763619;80;21154;-81
2020/12/24 05:22:18;;;;;;;1999.90;999.90;;;;;;;-3.86;97.15;101667.26;1749443;81;22074;-82
2020/12/24 05:24:46;;;;;;;1999.90;999.90;;;;;;;-3.87;97.20;101671.83;1764131;80;21173;-81
2020/12/24 05:27:16;;;;;;;1999.90;999.90;;;;;;;-3.84;97.31;101674.16;1753844;80;21153;-82
2020/12/24 05:29:45;;;;;;;1999.90;999.90;;;;;;;-3.79;97.41;101674.44;1767011;80;21168;-81
2020/12/24 05:32:12;;;;;;;1999.90;999.90;;;;;;;-3.75;97.40;101678.96;1752614;81;21109;-81
2020/12/24 05:34:40;;;;;;;1999.90;999.90;;;;;;;-3.73;97.38;101672.84;1759225;80;21207;-81
2020/12/24 05:37:17;;;;;;;1999.90;999.90;;;;;;;-3.71;97.44;101668.93;1749019;80;21453;-81
2020/12/24 05:39:48;;;;;;;1999.90;999.90;;;;;;;-3.66;97.45;101674.61;1762304;80;21169;-81
2020/12/24 05:42:15;;;;;;;1999.90;999.90;;;;;;;-3.63;97.41;101676.11;1754336;80;21134;-81
2020/12/24 05:44:43;;;;;;;1999.90;999.90;;;;;;;-3.58;97.46;101677.22;1756633;79;21173;-82
2020/12/24 05:47:11;;;;;;;1999.90;999.90;;;;;;;-3.54;97.42;101674.98;1755718;80;21273;-82
2020/12/24 05:49:39;;;;;;;1999.90;999.90;;;;;;;-3.53;97.35;101675.30;1761506;80;21201;-81
2020/12/24 05:52:06;;;;;;;1999.90;999.90;;;;;;;-3.50;97.36;101674.08;1747601;80;21181;-81
2020/12/24 05:54:37;;;;;;;1999.90;999.90;;;;;;;-3.50;97.26;101685.75;1756008;80;22271;-81
2020/12/24 05:57:04;;;;;;;1999.90;999.90;;;;;;;-3.51;97.15;101687.29;1753330;80;21158;-80
2020/12/24 05:59:32;;;;;;;1999.90;999.90;;;;;;;-3.51;97.21;101681.88;1752763;80;21376;-80
2020/12/24 06:02:17;;;;;;;1999.90;999.90;;;;;;;-3.52;97.22;101682.39;1752658;81;21165;-79
2020/12/24 06:04:48;;;;;;;1999.90;999.90;;;;;;;-3.50;97.25;101687.10;1760968;80;21185;-82
2020/12/24 06:07:32;;;;;;;1999.90;999.90;;;;;;;-3.46;97.29;101691.63;1733737;81;21150;-81
2020/12/24 06:10:07;;;;;;;1999.90;999.90;;;;;;;-3.44;97.32;101689.05;1748268;81;21158;-81
2020/12/24 06:12:50;;;;;;;1999.90;999.90;;;;;;;-3.42;97.26;101682.94;1733631;81;21917;-81
2020/12/24 06:15:30;;;;;;;1999.90;999.90;;;;;;;-3.35;97.31;101677.60;1816783;76;28525;-67
2020/12/24 06:17:58;;;;;;;1999.90;999.90;;;;;;;-3.36;97.33;101686.75;1785943;79;21016;-69
2020/12/24 06:20:25;;;;;;;1999.90;999.90;;;;;;;-3.33;97.31;101685.02;1756431;79;21208;-69
2020/12/24 06:22:55;;;;;;;1999.90;999.90;;;;;;;-3.31;97.29;101678.90;1767189;79;20961;-68
2020/12/24 06:25:23;;;;;;;1999.90;999.90;;;;;;;-3.32;97.20;101681.28;1743893;79;20993;-68
2020/12/24 06:27:52;;;;;;;1999.90;999.90;;;;;;;-3.33;97.17;101679.09;1803323;79;21186;-68
2020/12/24 06:30:24;;;;;;;1999.90;999.90;;;;;;;-3.37;97.19;101684.56;1777719;79;21652;-65
2020/12/24 06:32:54;;;;;;;1999.90;999.90;;;;;;;-3.41;97.34;101681.91;1786336;79;22227;-70
2020/12/24 06:35:40;;;;;;;1999.90;999.90;;;;;;;-3.40;97.49;101684.94;1799151;79;21000;-70
2020/12/24 06:38:09;;;;;;;1999.90;999.90;;;;;;;-3.39;97.65;101694.73;1789651;79;20961;-68
2020/12/24 06:40:38;;;;;;;1999.90;999.90;;;;;;;-3.35;97.78;101689.78;1808479;79;21135;-70
2020/12/24 06:43:09;;;;;;;1999.90;999.90;;;;;;;-3.30;97.89;101696.31;1789688;79;21091;-67
2020/12/24 06:45:39;;;;;;;1999.90;999.90;;;;;;;-3.26;97.92;101688.64;1799154;79;22241;-70
2020/12/24 06:48:16;;;;;;;1999.90;999.90;;;;;;;-3.20;97.96;101690.59;1791204;78;20984;-68
2020/12/24 06:51:01;;;;;;;1999.90;999.90;;;;;;;-3.20;97.83;101700.06;1790033;79;20969;-70
2020/12/24 06:53:32;;;;;;;1999.90;999.90;;;;;;;-3.17;97.88;101700.20;1792992;79;21080;-67
2020/12/24 06:56:19;;;;;;;1999.90;999.90;;;;;;;-3.16;97.89;101706.78;1798768;79;20969;-70
2020/12/24 06:59:01;;;;;;;1999.90;999.90;;;;;;;-3.09;97.99;101698.73;1799480;79;21370;-68
2020/12/24 07:01:32;;;;;;;1999.90;999.90;;;;;;;-3.04;97.99;101702.55;1786974;79;21585;-70
2020/12/24 07:04:02;;;;;;;1999.90;999.90;;;;;;;-2.97;98.03;101703.97;1792277;79;21099;-67
2020/12/24 07:06:49;;;;;;;1999.90;999.90;;;;;;;-2.93;97.98;101700.69;1787068;79;21145;-70
2020/12/24 07:09:28;;;;;;;1999.90;999.90;;;;;;;-2.91;97.92;101703.20;1789617;79;21103;-67
2020/12/24 07:11:56;;;;;;;1999.90;999.90;;;;;;;-2.94;98.03;101700.36;1792391;77;21438;-67
2020/12/24 07:14:37;;;;;;;1999.90;999.90;;;;;;;-2.92;98.50;101705.08;1796728;78;20925;-68
2020/12/24 07:17:20;;;;;;;1999.90;999.90;;;;;;;-2.89;98.83;101697.59;1804302;78;21519;-70
2020/12/24 07:19:50;;;;;;;1999.90;999.90;;;;;;;-2.86;99.10;101706.69;1819331;78;20913;-69
2020/12/24 07:22:18;;;;;;;1999.90;999.90;;;;;;;-2.83;99.38;101708.50;1809420;78;21497;-69
2020/12/24 07:24:49;;;;;;;1999.90;999.90;;;;;;;-2.81;99.62;101708.30;1809096;78;21365;-68
2020/12/24 07:27:17;;;;;;;1999.90;999.90;;;;;;;-2.78;99.85;101713.34;1796183;78;21549;-68
2020/12/24 07:29:45;;;;;;;1999.90;999.90;;;;;;;-2.76;100.00;101712.12;1811702;78;20975;-70
2020/12/24 07:32:13;;;;;;;1999.90;999.90;;;;;;;-2.72;100.00;101707.15;1804257;78;21534;-68
2020/12/24 07:34:41;;;;;;;1999.90;999.90;;;;;;;-2.71;100.00;101709.66;1806078;78;21000;-69
2020/12/24 07:37:09;;;;;;;1999.90;999.90;;;;;;;-2.68;100.00;101713.86;1805154;77;21367;-69
2020/12/24 07:39:37;;;;;;;1999.90;999.90;;;;;;;-2.67;100.00;101708.77;1807415;78;20996;-69
2020/12/24 07:42:04;;;;;;;1999.90;999.90;;;;;;;-2.63;100.00;101714.12;1809010;78;20960;-68
2020/12/24 07:44:32;;;;;;;1999.90;999.90;;;;;;;-2.58;100.00;101721.67;1807102;78;20941;-69
2020/12/24 07:47:02;;;;;;;1999.90;999.90;;;;;;;-2.54;99.83;101720.25;1804664;78;20960;-67
2020/12/24 07:49:30;;;;;;;1999.90;999.90;;;;;;;-2.49;99.67;101717.28;1805817;78;22086;-67
2020/12/24 07:51:58;;;;;;;1999.90;999.90;;;;;;;-2.44;99.45;101720.23;1804113;78;21084;-68
2020/12/24 07:54:30;;;;;;;1999.90;999.90;;;;;;;-2.40;99.02;101721.53;1802675;78;21003;-69
2020/12/24 07:56:58;;;;;;;1999.90;999.90;;;;;;;-2.36;98.64;101717.91;1809749;78;20975;-69
2020/12/24 07:59:26;;;;;;;1999.90;999.90;;;;;;;-2.30;98.34;101719.84;1808315;78;21007;-68
2020/12/24 08:02:04;;;;;;;1999.90;999.90;;;;;;;-2.27;97.56;101714.86;1808085;78;21190;-67
2020/12/24 08:04:32;;;;;;;1999.90;999.90;;;;;;;-2.23;97.06;101711.76;1806295;78;20988;-67
2020/12/24 08:07:00;;;;;;;1999.90;999.90;;;;;;;-2.18;96.44;101716.08;1803639;78;20972;-69
2020/12/24 08:09:27;;;;;;;1999.90;999.90;;;;;;;-2.13;95.79;101714.97;1810414;78;21095;-67
2020/12/24 08:11:59;;;;;;;1999.90;999.90;;;;;;;-2.10;95.27;101709.98;1807128;78;21522;-69
2020/12/24 08:14:28;;;;;;;1999.90;999.90;;;;;;;-2.06;94.39;101717.21;1806047;78;21368;-69
2020/12/24 08:17:28;;;;;;;1999.90;999.90;;;;;;;-2.02;93.51;101722.56;1795372;79;20976;-69
2020/12/24 08:20:07;;;;;;;1999.90;999.90;;;;;;;-2.00;92.74;101719.13;1803579;79;21103;-67
2020/12/24 08:22:57;;;;;;;1999.90;999.90;;;;;;;-1.95;92.57;101711.24;1799100;79;21084;-70
2020/12/24 08:25:24;;;;;;;1999.90;999.90;;;;;;;-1.92;91.52;101710.84;1759320;78;21499;-68
2020/12/24 08:27:52;;;;;;;1999.90;999.90;;;;;;;-1.84;91.52;101711.20;1790059;79;22126;-70
2020/12/24 08:30:19;;;;;;;1999.90;999.90;;;;;;;-1.78;91.61;101711.25;1791613;79;20984;-71
2020/12/24 08:32:47;;;;;;;1999.90;999.90;;;;;;;-1.77;89.54;101704.78;1797571;79;21111;-65
2020/12/24 08:35:15;;;;;;;1999.90;999.90;;;;;;;-1.74;88.58;101702.19;1803389;79;20945;-71
2020/12/24 08:37:42;;;;;;;1999.90;999.90;;;;;;;-1.69;88.35;101704.63;1798728;79;21064;-71
2020/12/24 08:40:24;;;;;;;1999.90;999.90;;;;;;;-1.63;87.70;101706.54;1795667;79;22100;-71
2020/12/24 08:42:59;;;;;;;1999.90;999.90;;;;;;;-1.59;86.86;101693.41;1791261;79;20992;-62
2020/12/24 08:45:27;;;;;;;1999.90;999.90;;;;;;;-1.57;86.27;101696.75;1804057;79;21316;-69
2020/12/24 08:47:55;;;;;;;1999.90;999.90;;;;;;;-1.55;85.25;101688.41;1793376;79;21126;-69
2020/12/24 08:50:35;;;;;;;1999.90;999.90;;;;;;;-1.54;84.98;101688.20;1796205;79;21107;-74
2020/12/24 08:53:06;;;;;;;1999.90;999.90;;;;;;;-1.52;84.90;101684.77;1796095;79;21399;-64
2020/12/24 08:55:34;;;;;;;1999.90;999.90;;;;;;;-1.47;85.35;101687.72;1799819;79;20941;-67
2020/12/24 08:58:01;;;;;;;1999.90;999.90;;;;;;;-1.41;85.53;101682.00;1798143;79;21652;-70
2020/12/24 09:00:29;;;;;;;1999.90;999.90;;;;;;;-1.33;84.74;101676.39;1797702;79;21174;-67
2020/12/24 09:02:57;;;;;;;1999.90;999.90;;;;;;;-1.24;84.76;101668.91;1795076;79;21454;-72
2020/12/24 09:05:25;;;;;;;1999.90;999.90;;;;;;;-1.16;84.12;101669.56;1776820;79;21867;-64
2020/12/24 09:07:53;;;;;;;1999.90;999.90;;;;;;;-1.08;83.83;101657.67;1795905;79;20973;-73
2020/12/24 09:10:26;;;;;;;1999.90;999.90;;;;;;;-1.03;82.53;101651.09;1794802;79;20985;-71
2020/12/24 09:12:58;;;;;;;1999.90;999.90;;;;;;;-0.97;82.30;101647.03;1795355;79;21620;-72
2020/12/24 09:15:26;;;;;;;1999.90;999.90;;;;;;;-0.94;82.00;101637.63;1804625;78;20941;-67
2020/12/24 09:17:56;;;;;;;1999.90;999.90;;;;;;;-0.91;81.77;101635.86;1814242;78;22218;-68
2020/12/24 09:20:33;;;;;;;1999.90;999.90;;;;;;;-0.89;80.83;101637.02;1789476;79;20965;-68
2020/12/24 09:23:10;;;;;;;1999.90;999.90;;;;;;;-0.87;80.15;101633.56;1760022;80;21054;-67
2020/12/24 09:25:42;;;;;;;1999.90;999.90;;;;;;;-0.84;80.06;101633.98;1795257;79;21028;-67
2020/12/24 09:28:24;;;;;;;1999.90;999.90;;;;;;;-0.76;80.34;101630.23;1772279;79;20995;-67
2020/12/24 09:30:54;;;;;;;1999.90;999.90;;;;;;;-0.75;79.68;101628.66;1791032;79;21702;-67
2020/12/24 09:33:22;;;;;;;1999.90;999.90;;;;;;;-0.71;79.78;101634.00;1759182;80;21023;-67
2020/12/24 09:35:50;;;;;;;1999.90;999.90;;;;;;;-0.64;79.83;101632.64;1792771;79;21240;-67
2020/12/24 09:38:19;;;;;;;1999.90;999.90;;;;;;;-0.59;78.45;101630.14;1770172;80;21044;-66
2020/12/24 09:40:47;;;;;;;1999.90;999.90;;;;;;;-0.55;77.61;101631.91;1766972;80;21110;-72
2020/12/24 09:43:15;;;;;;;1999.90;999.90;;;;;;;-0.51;77.20;101629.92;1759409;81;21241;-67
2020/12/24 09:45:43;;;;;;;1999.90;999.90;;;;;;;-0.47;77.34;101623.02;1758705;80;20997;-67
2020/12/24 09:48:10;;;;;;;1999.90;999.90;;;;;;;-0.44;76.18;101618.52;1793681;79;21000;-67
2020/12/24 09:50:40;;;;;;;1999.90;999.90;;;;;;;-0.48;75.37;101621.35;1777518;80;21092;-66
2020/12/24 09:53:08;;;;;;;1999.90;999.90;;;;;;;-0.51;75.14;101612.25;1768965;80;20975;-72
2020/12/24 09:55:35;;;;;;;1999.90;999.90;;;;;;;-0.54;74.53;101615.39;1791735;79;21188;-66
2020/12/24 09:58:03;;;;;;;1999.90;999.90;;;;;;;-0.54;74.59;101619.99;1759806;80;21656;-66
2020/12/24 10:00:31;;;;;;;1999.90;999.90;;;;;;;-0.54;74.96;101623.55;1793845;79;21590;-67
2020/12/24 10:02:59;;;;;;;1999.90;999.90;;;;;;;-0.53;74.65;101616.23;1760789;80;21007;-66
2020/12/24 10:05:27;;;;;;;1999.90;999.90;;;;;;;-0.53;74.50;101612.98;1785855;79;21471;-72
2020/12/24 10:07:57;;;;;;;1999.90;999.90;;;;;;;-0.53;74.49;101618.42;1770096;80;21194;-72
2020/12/24 10:10:24;;;;;;;1999.90;999.90;;;;;;;-0.50;75.26;101613.09;1764807;80;20975;-71
2020/12/24 10:12:52;;;;;;;1999.90;999.90;;;;;;;-0.45;75.73;101610.58;1772189;80;20975;-66
2020/12/24 10:15:20;;;;;;;1999.90;999.90;;;;;;;-0.39;76.43;101605.12;1770747;79;21612;-66
2020/12/24 10:17:48;;;;;;;1999.90;999.90;;;;;;;-0.34;74.94;101605.33;1761920;80;21209;-67
2020/12/24 10:20:15;;;;;;;1999.90;999.90;;;;;;;-0.36;74.52;101600.63;1740567;81;21366;-67
2020/12/24 10:22:43;;;;;;;1999.90;999.90;;;;;;;-0.39;74.88;101601.57;1747155;81;21127;-71
2020/12/24 10:25:11;;;;;;;1999.90;999.90;;;;;;;-0.41;74.28;101607.75;1792529;79;21151;-66
2020/12/24 10:27:39;;;;;;;1999.90;999.90;;;;;;;-0.44;73.81;101602.20;1799900;79;21142;-68
2020/12/24 10:30:07;;;;;;;1999.90;999.90;;;;;;;-0.41;74.29;101594.98;1791171;79;21397;-73
2020/12/24 10:32:36;;;;;;;1999.90;999.90;;;;;;;-0.36;74.04;101599.27;1804081;79;21193;-74
2020/12/24 10:35:04;;;;;;;1999.90;999.90;;;;;;;-0.37;74.09;101598.12;1793895;79;21119;-72
2020/12/24 10:37:32;;;;;;;1999.90;999.90;;;;;;;-0.38;73.56;101599.16;1794119;79;21166;-72
2020/12/24 10:40:00;;;;;;;1999.90;999.90;;;;;;;-0.36;73.59;101602.52;1797419;79;21593;-66
2020/12/24 10:42:27;;;;;;;1999.90;999.90;;;;;;;-0.35;73.97;101602.30;1791823;79;21091;-67
2020/12/24 10:44:55;;;;;;;1999.90;999.90;;;;;;;-0.36;72.53;101601.98;1795611;79;21349;-70
2020/12/24 10:47:23;;;;;;;1999.90;999.90;;;;;;;-0.38;73.67;101599.16;1793117;79;21071;-70
2020/12/24 10:49:51;;;;;;;1999.90;999.90;;;;;;;-0.45;72.81;101594.26;1796360;79;21281;-66
2020/12/24 10:52:18;;;;;;;1999.90;999.90;;;;;;;-0.51;72.80;101595.94;1790864;79;21099;-66
2020/12/24 10:54:46;;;;;;;1999.90;999.90;;;;;;;-0.52;73.45;101594.78;1793158;79;21091;-67
2020/12/24 10:57:14;;;;;;;1999.90;999.90;;;;;;;-0.51;73.89;101593.22;1798396;78;21321;-68